Observation data for Plainview on 01/19/2019      Previous  Date  Next       Current Mesonet Observations  Soil Data  Daily Summary Page  Observations in Plain Language
KPVS 190600Z 34017G29KT 00/M02 A3004 RMK A01 T00031015  RH  089%=      5-min Rain = 0
KPVS 190605Z 34019G28KT 00/M02 A3004 RMK A01 T00031016  RH  088%=      5-min Rain = 0
KPVS 190610Z 35016G21KT 00/M02 A3005 RMK A01 T00031015  RH  088%=      5-min Rain = 0
KPVS 190615Z 34018G27KT 00/M02 A3005 RMK A01 T00041016  RH  088%=      5-min Rain = 0
KPVS 190620Z 34019G25KT 00/M02 A3005 RMK A01 T00041016  RH  087%=      5-min Rain = 0
KPVS 190625Z 34015G25KT 00/M02 A3005 RMK A01 T00041016  RH  088%=      5-min Rain = 0
KPVS 190630Z 34015G20KT 00/M01 A3005 RMK A01 T00031014  RH  089%=      5-min Rain = 0
KPVS 190635Z 34015G21KT 00/M01 A3005 RMK A01 T00041014  RH  089%=      5-min Rain = 0
KPVS 190640Z 34015G23KT 00/M01 A3005 RMK A01 T00041013  RH  090%=      5-min Rain = 0
KPVS 190645Z 34016G23KT 00/M01 A3005 RMK A01 T00041013  RH  089%=      5-min Rain = 0
KPVS 190650Z 33021G29KT 01/M02 A3005 RMK A01 T00061016  RH  086%=      5-min Rain = 0
KPVS 190655Z 33017G27KT 01/M02 A3006 RMK A01 T00071018  RH  084%=      5-min Rain = 0
KPVS 190700Z 33018G30KT 01/M02 A3007 RMK A01 T00071018  RH  084%=      5-min Rain = 0
KPVS 190705Z 33018G25KT 01/M02 A3007 RMK A01 T00071019  RH  084%=      5-min Rain = 0
KPVS 190710Z 33019G25KT 01/M02 A3007 RMK A01 T00071019  RH  083%=      5-min Rain = 0
KPVS 190715Z 33019G24KT 01/M02 A3007 RMK A01 T00061021  RH  083%=      5-min Rain = 0
KPVS 190720Z 33020G27KT 01/M02 A3007 RMK A01 T00051022  RH  083%=      5-min Rain = 0
KPVS 190725Z 33019G29KT 00/M02 A3007 RMK A01 T00031024  RH  083%=      5-min Rain = 0
KPVS 190730Z 34019G29KT 00/M03 A3007 RMK A01 T00021025  RH  083%=      5-min Rain = 0
KPVS 190735Z 34016G26KT 00/M03 A3007 RMK A01 T00011025  RH  084%=      5-min Rain = 0
KPVS 190740Z 33014G28KT 00/02 A3007 RMK A01 T00-00-23  RH  085%=      5-min Rain = 0
KPVS 190745Z 33018G26KT M00/M03 A3007 RMK A01 T10021025  RH  085%=      5-min Rain = 0
KPVS 190750Z 33018G29KT M00/M03 A3007 RMK A01 T10021027  RH  084%=      5-min Rain = 0
KPVS 190755Z 33018G28KT M00/M03 A3007 RMK A01 T10031029  RH  084%=      5-min Rain = 0
KPVS 190800Z 34018G27KT M00/M03 A3007 RMK A01 T10031030  RH  083%=      5-min Rain = 0
KPVS 190805Z 34019G30KT M00/M03 A3007 RMK A01 T10031032  RH  082%=      5-min Rain = 0
KPVS 190810Z 34019G27KT M00/M03 A3008 RMK A01 T10031032  RH  082%=      5-min Rain = 0
KPVS 190815Z 34019G28KT M00/M03 A3008 RMK A01 T10041032  RH  082%=      5-min Rain = 0
KPVS 190820Z 33017G24KT M01/M03 A3008 RMK A01 T10051032  RH  082%=      5-min Rain = 0
KPVS 190825Z 33020G28KT M01/M03 A3008 RMK A01 T10051033  RH  083%=      5-min Rain = 0
KPVS 190830Z 34017G25KT M01/M03 A3009 RMK A01 T10061034  RH  082%=      5-min Rain = 0
KPVS 190835Z 34016G22KT M01/M03 A3009 RMK A01 T10071034  RH  083%=      5-min Rain = 0
KPVS 190840Z 33016G21KT M01/M04 A301 RMK A01 T10071035  RH  083%=      5-min Rain = 0
KPVS 190845Z 34017G23KT M01/M04 A301 RMK A01 T10071035  RH  083%=      5-min Rain = 0
KPVS 190850Z 34018G25KT M01/M04 A301 RMK A01 T10081035  RH  082%=      5-min Rain = 0
KPVS 190855Z 34016G22KT M01/M04 A3011 RMK A01 T10081036  RH  082%=      5-min Rain = 0
KPVS 190900Z 34015G20KT M01/M04 A3011 RMK A01 T10081035  RH  083%=      5-min Rain = 0
KPVS 190905Z 33013KT M01/M03 A3011 RMK A01 T10101034  RH  084%=      5-min Rain = 0
KPVS 190910Z 33014G22KT M01/M04 A3012 RMK A01 T10121035  RH  085%=      5-min Rain = 0
KPVS 190915Z 33015G22KT M01/M04 A3012 RMK A01 T10131038  RH  084%=      5-min Rain = 0
KPVS 190920Z 33017G25KT M01/M04 A3012 RMK A01 T10141040  RH  083%=      5-min Rain = 0
KPVS 190925Z 33017G25KT M01/M04 A3013 RMK A01 T10141041  RH  083%=      5-min Rain = 0
KPVS 190930Z 33015G24KT M02/M04 A3013 RMK A01 T10151042  RH  083%=      5-min Rain = 0
KPVS 190935Z 34018G26KT M02/M04 A3013 RMK A01 T10151042  RH  083%=      5-min Rain = 0
KPVS 190940Z 33015G21KT M02/M04 A3014 RMK A01 T10151042  RH  083%=      5-min Rain = 0
KPVS 190945Z 33018G28KT M02/M04 A3014 RMK A01 T10161042  RH  083%=      5-min Rain = 0
KPVS 190950Z 33014G21KT M02/M04 A3015 RMK A01 T10171043  RH  083%=      5-min Rain = 0
KPVS 190955Z 34013G20KT M02/M04 A3015 RMK A01 T10181043  RH  084%=      5-min Rain = 0
KPVS 191000Z 34015G23KT M02/M04 A3015 RMK A01 T10181043  RH  084%=      5-min Rain = 0
KPVS 191005Z 34012G19KT M02/M04 A3015 RMK A01 T10191043  RH  085%=      5-min Rain = 0
KPVS 191010Z 34011G17KT M02/M04 A3015 RMK A01 T10201042  RH  085%=      5-min Rain = 0
KPVS 191015Z 33012G17KT M02/M04 A3015 RMK A01 T10211042  RH  086%=      5-min Rain = 0
KPVS 191020Z 34013G21KT M02/M04 A3015 RMK A01 T10211042  RH  086%=      5-min Rain = 0
KPVS 191025Z 33012G19KT M02/M04 A3016 RMK A01 T10211043  RH  086%=      5-min Rain = 0
KPVS 191030Z 33011KT M02/M04 A3016 RMK A01 T10211043  RH  086%=      5-min Rain = 0
KPVS 191035Z 33013G20KT M02/M04 A3016 RMK A01 T10221043  RH  086%=      5-min Rain = 0
KPVS 191040Z 33014G22KT M02/M04 A3016 RMK A01 T10211043  RH  086%=      5-min Rain = 0
KPVS 191045Z 33014G21KT M02/M04 A3016 RMK A01 T10221044  RH  086%=      5-min Rain = 0
KPVS 191050Z 33014G22KT M02/M04 A3016 RMK A01 T10221044  RH  086%=      5-min Rain = 0
KPVS 191055Z 33015G22KT M02/M04 A3016 RMK A01 T10221044  RH  086%=      5-min Rain = 0
KPVS 191100Z 33015KT M02/M04 A3017 RMK A01 T10221044  RH  086%=      5-min Rain = 0
KPVS 191105Z 33014G23KT M02/M04 A3017 RMK A01 T10221044  RH  086%=      5-min Rain = 0
KPVS 191110Z 33014G19KT M02/M04 A3016 RMK A01 T10221043  RH  086%=      5-min Rain = 0
KPVS 191115Z 32014G21KT M02/M04 A3016 RMK A01 T10221043  RH  087%=      5-min Rain = 0
KPVS 191120Z 32015G21KT M02/M04 A3016 RMK A01 T10221042  RH  087%=      5-min Rain = 0
KPVS 191125Z 32013G18KT M02/M04 A3016 RMK A01 T10221043  RH  087%=      5-min Rain = 0
KPVS 191130Z 32013KT M02/M04 A3016 RMK A01 T10231043  RH  087%=      5-min Rain = 0
KPVS 191135Z 32015G22KT M02/M04 A3016 RMK A01 T10231043  RH  087%=      5-min Rain = 0
KPVS 191140Z 32012G18KT M02/M04 A3016 RMK A01 T10241043  RH  088%=      5-min Rain = 0
KPVS 191145Z 32013G18KT M02/M04 A3016 RMK A01 T10241043  RH  088%=      5-min Rain = 0
KPVS 191150Z 33012G18KT M02/M04 A3016 RMK A01 T10241043  RH  088%=      5-min Rain = 0
KPVS 191155Z 33012G19KT M02/M04 A3016 RMK A01 T10231042  RH  088%=      5-min Rain = 0
KPVS 191200Z 33013G18KT M02/M04 A3016 RMK A01 T10231042  RH  088%=      5-min Rain = 0
KPVS 191205Z 33012G17KT M02/M04 A3017 RMK A01 T10221042  RH  087%=      5-min Rain = 0
KPVS 191210Z 33010G15KT M02/M04 A3017 RMK A01 T10231042  RH  088%=      5-min Rain = 0
KPVS 191215Z 32011KT M02/M04 A3017 RMK A01 T10231042  RH  088%=      5-min Rain = 0
KPVS 191220Z 32011KT M02/M04 A3017 RMK A01 T10231042  RH  088%=      5-min Rain = 0
KPVS 191225Z 32010G15KT M02/M04 A3017 RMK A01 T10231042  RH  088%=      5-min Rain = 0
KPVS 191230Z 32010KT M02/M04 A3018 RMK A01 T10231042  RH  088%=      5-min Rain = 0
KPVS 191235Z 32010G15KT M02/M04 A3018 RMK A01 T10241042  RH  088%=      5-min Rain = 0
KPVS 191240Z 32010KT M03/M04 A3018 RMK A01 T10251043  RH  088%=      5-min Rain = 0
KPVS 191245Z 32010G15KT M03/M04 A3019 RMK A01 T10251043  RH  089%=      5-min Rain = 0
KPVS 191250Z 32011KT M03/M04 A302 RMK A01 T10261043  RH  089%=      5-min Rain = 0
KPVS 191255Z 32010KT M03/M04 A302 RMK A01 T10261043  RH  089%=      5-min Rain = 0
KPVS 191300Z 32009KT M03/M04 A302 RMK A01 T10271044  RH  089%=      5-min Rain = 0
KPVS 191305Z 33009KT M03/M04 A3021 RMK A01 T10281044  RH  090%=      5-min Rain = 0
KPVS 191310Z 33009KT M03/M05 A3021 RMK A01 T10281045  RH  090%=      5-min Rain = 0
KPVS 191315Z 33009KT M03/M05 A302 RMK A01 T10291045  RH  090%=      5-min Rain = 0
KPVS 191320Z 33010KT M03/M05 A3021 RMK A01 T10291045  RH  090%=      5-min Rain = 0
KPVS 191325Z 32009KT M03/M05 A3021 RMK A01 T10301046  RH  090%=      5-min Rain = 0
KPVS 191330Z 32009KT M03/M05 A3022 RMK A01 T10311046  RH  090%=      5-min Rain = 0
KPVS 191335Z 32008KT M03/M05 A3022 RMK A01 T10321048  RH  090%=      5-min Rain = 0
KPVS 191340Z 32007G12KT M03/M05 A3022 RMK A01 T10341048  RH  091%=      5-min Rain = 0
KPVS 191345Z 31007KT M03/M05 A3022 RMK A01 T10341048  RH  091%=      5-min Rain = 0
KPVS 191350Z 32007KT M04/M05 A3023 RMK A01 T10351049  RH  091%=      5-min Rain = 0
KPVS 191355Z 32007KT M04/M05 A3023 RMK A01 T10351049  RH  091%=      5-min Rain = 0
KPVS 191400Z 32007KT M04/M05 A3023 RMK A01 T10351049  RH  091%=      5-min Rain = 0
KPVS 191405Z 32006KT M04/M05 A3023 RMK A01 T10361050  RH  091%=      5-min Rain = 0
KPVS 191410Z 32007KT M04/M05 A3024 RMK A01 T10351049  RH  091%=      5-min Rain = 0
KPVS 191415Z 32006KT M03/M05 A3024 RMK A01 T10341048  RH  091%=      5-min Rain = 0
KPVS 191420Z 32006KT M03/M05 A3024 RMK A01 T10341049  RH  090%=      5-min Rain = 0
KPVS 191425Z 32007KT M03/M05 A3025 RMK A01 T10331049  RH  090%=      5-min Rain = 0
KPVS 191430Z 33006KT M03/M05 A3025 RMK A01 T10321048  RH  090%=      5-min Rain = 0
KPVS 191435Z 34006KT M03/M05 A3025 RMK A01 T10311047  RH  089%=      5-min Rain = 0
KPVS 191440Z 34007KT M03/M05 A3025 RMK A01 T10301047  RH  089%=      5-min Rain = 0
KPVS 191445Z 33005KT M03/M05 A3026 RMK A01 T10291046  RH  089%=      5-min Rain = 0
KPVS 191450Z 34005KT M03/M05 A3026 RMK A01 T10271045  RH  088%=      5-min Rain = 0
KPVS 191455Z 34005KT M03/M04 A3026 RMK A01 T10251044  RH  088%=      5-min Rain = 0
KPVS 191500Z 34007KT M02/M04 A3026 RMK A01 T10211042  RH  087%=      5-min Rain = 0
KPVS 191505Z 33008KT M02/M04 A3027 RMK A01 T10191041  RH  085%=      5-min Rain = 0
KPVS 191510Z 33009KT M02/M04 A3027 RMK A01 T10171041  RH  085%=      5-min Rain = 0
KPVS 191515Z 34008KT M01/M04 A3028 RMK A01 T10141038  RH  084%=      5-min Rain = 0
KPVS 191520Z 34008KT M01/M04 A3028 RMK A01 T10101035  RH  084%=      5-min Rain = 0
KPVS 191525Z 34009KT M01/M03 A3028 RMK A01 T10051033  RH  082%=      5-min Rain = 0
KPVS 191530Z 34009KT 00/03 A3028 RMK A01 T00000-31  RH  081%=      5-min Rain = 0
KPVS 191535Z 34011KT 01/M03 A3028 RMK A01 T00051029  RH  079%=      5-min Rain = 0
KPVS 191540Z 34011KT 01/M03 A3028 RMK A01 T00081028  RH  078%=      5-min Rain = 0
KPVS 191545Z 34012G17KT 01/M03 A3029 RMK A01 T00121026  RH  077%=      5-min Rain = 0
KPVS 191550Z 34013G19KT 01/M03 A3029 RMK A01 T00131026  RH  076%=      5-min Rain = 0
KPVS 191555Z 35013G19KT 02/M03 A3029 RMK A01 T00161026  RH  075%=      5-min Rain = 0
KPVS 191600Z 35013G18KT 02/M03 A3029 RMK A01 T00181026  RH  074%=      5-min Rain = 0
KPVS 191605Z 35011KT 02/M02 A3029 RMK A01 T00201024  RH  073%=      5-min Rain = 0
KPVS 191610Z 35011KT 02/M02 A3029 RMK A01 T00221023  RH  073%=      5-min Rain = 0
KPVS 191615Z 34012G19KT 03/M02 A3029 RMK A01 T00251023  RH  072%=      5-min Rain = 0
KPVS 191620Z 34012G17KT 03/M02 A3029 RMK A01 T00301021  RH  070%=      5-min Rain = 0
KPVS 191625Z 35012G17KT 03/M02 A3029 RMK A01 T00311021  RH  069%=      5-min Rain = 0
KPVS 191630Z 35011KT 03/M02 A3029 RMK A01 T00331021  RH  069%=      5-min Rain = 0
KPVS 191635Z 35013KT 03/M02 A3029 RMK A01 T00321022  RH  068%=      5-min Rain = 0
KPVS 191640Z 34012G17KT 03/M02 A3029 RMK A01 T00311023  RH  068%=      5-min Rain = 0
KPVS 191645Z 33013G19KT 04/M02 A303 RMK A01 T00351021  RH  067%=      5-min Rain = 0
KPVS 191650Z 34014KT 04/M02 A303 RMK A01 T00361022  RH  067%=      5-min Rain = 0
KPVS 191655Z 35014G21KT 04/M02 A303 RMK A01 T00361022  RH  067%=      5-min Rain = 0
KPVS 191700Z 34012G19KT 04/M02 A303 RMK A01 T00381021  RH  066%=      5-min Rain = 0
KPVS 191705Z 35014G23KT 04/M02 A303 RMK A01 T00431021  RH  064%=      5-min Rain = 0
KPVS 191710Z 36016G26KT 04/M02 A303 RMK A01 T00441022  RH  063%=      5-min Rain = 0
KPVS 191715Z 35018G24KT 04/M02 A303 RMK A01 T00441022  RH  063%=      5-min Rain = 0
KPVS 191720Z 35018G23KT 05/M02 A303 RMK A01 T00461022  RH  062%=      5-min Rain = 0
KPVS 191725Z 35017G25KT 05/M02 A303 RMK A01 T00481022  RH  061%=      5-min Rain = 0
KPVS 191730Z 35016G23KT 05/M02 A303 RMK A01 T00501022  RH  060%=      5-min Rain = 0
KPVS 191735Z 35017G23KT 05/M02 A303 RMK A01 T00501023  RH  060%=      5-min Rain = 0
KPVS 191740Z 35013G22KT 06/M02 A303 RMK A01 T00561021  RH  058%=      5-min Rain = 0
KPVS 191745Z 34015G20KT 06/M02 A303 RMK A01 T00571023  RH  057%=      5-min Rain = 0
KPVS 191750Z 34015G23KT 06/M02 A303 RMK A01 T00611021  RH  056%=      5-min Rain = 0
KPVS 191755Z 33017G23KT 06/M02 A303 RMK A01 T00601023  RH  056%=      5-min Rain = 0
KPVS 191800Z 34015G21KT 06/M02 A303 RMK A01 T00611022  RH  056%=      5-min Rain = 0
KPVS 191805Z 35015G22KT 07/M02 A303 RMK A01 T00661020  RH  055%=      5-min Rain = 0
KPVS 191810Z 34016G22KT 07/M02 A303 RMK A01 T00651022  RH  054%=      5-min Rain = 0
KPVS 191815Z 35014G23KT 07/M02 A303 RMK A01 T00681020  RH  054%=      5-min Rain = 0
KPVS 191820Z 34017G24KT 07/M02 A303 RMK A01 T00671023  RH  053%=      5-min Rain = 0
KPVS 191825Z 34015G22KT 07/M02 A303 RMK A01 T00701021  RH  053%=      5-min Rain = 0
KPVS 191830Z 34017G24KT 07/M02 A303 RMK A01 T00701024  RH  052%=      5-min Rain = 0
KPVS 191835Z 34014G22KT 07/M02 A303 RMK A01 T00711022  RH  052%=      5-min Rain = 0
KPVS 191840Z 33015G20KT 07/M02 A3029 RMK A01 T00741024  RH  050%=      5-min Rain = 0
KPVS 191845Z 33015G22KT 07/M02 A3029 RMK A01 T00731023  RH  051%=      5-min Rain = 0
KPVS 191850Z 34017G24KT 07/M02 A3029 RMK A01 T00731024  RH  051%=      5-min Rain = 0
KPVS 191855Z 34015G21KT 07/M02 A3028 RMK A01 T00731021  RH  052%=      5-min Rain = 0
KPVS 191900Z 33016G22KT 07/M02 A3028 RMK A01 T00741022  RH  051%=      5-min Rain = 0
KPVS 191905Z 34015G22KT 07/M02 A3028 RMK A01 T00741022  RH  051%=      5-min Rain = 0
KPVS 191910Z 34016G22KT 08/M02 A3028 RMK A01 T00751023  RH  050%=      5-min Rain = 0
KPVS 191915Z 33017G26KT 07/M02 A3027 RMK A01 T00741024  RH  050%=      5-min Rain = 0
KPVS 191920Z 33016G22KT 08/M02 A3027 RMK A01 T00751023  RH  051%=      5-min Rain = 0
KPVS 191925Z 34015G21KT 08/M02 A3027 RMK A01 T00771023  RH  050%=      5-min Rain = 0
KPVS 191930Z 34016G22KT 08/M03 A3027 RMK A01 T00761025  RH  049%=      5-min Rain = 0
KPVS 191935Z 33017G23KT 08/M02 A3027 RMK A01 T00761024  RH  050%=      5-min Rain = 0
KPVS 191940Z 33016G21KT 08/M02 A3026 RMK A01 T00771023  RH  050%=      5-min Rain = 0
KPVS 191945Z 34015G21KT 08/M02 A3026 RMK A01 T00771023  RH  050%=      5-min Rain = 0
KPVS 191950Z 33015G21KT 08/M02 A3026 RMK A01 T00781024  RH  049%=      5-min Rain = 0
KPVS 191955Z 34015G21KT 08/M03 A3026 RMK A01 T00781025  RH  049%=      5-min Rain = 0
KPVS 192000Z 33017G22KT 08/M02 A3026 RMK A01 T00781024  RH  049%=      5-min Rain = 0
KPVS 192005Z 33016G23KT 08/M03 A3025 RMK A01 T00771025  RH  049%=      5-min Rain = 0
KPVS 192010Z 33017KT 08/M03 A3025 RMK A01 T00781025  RH  049%=      5-min Rain = 0
KPVS 192015Z 33015G25KT 08/M03 A3025 RMK A01 T00791028  RH  047%=      5-min Rain = 0
KPVS 192020Z 34017G22KT 08/M03 A3025 RMK A01 T00811029  RH  046%=      5-min Rain = 0
KPVS 192025Z 33017G22KT 08/M03 A3025 RMK A01 T00801032  RH  046%=      5-min Rain = 0
KPVS 192030Z 34016G22KT 08/M03 A3025 RMK A01 T00801030  RH  046%=      5-min Rain = 0
KPVS 192035Z 34014G19KT 09/M03 A3025 RMK A01 T00851030  RH  045%=      5-min Rain = 0
KPVS 192040Z 33015G21KT 09/M03 A3025 RMK A01 T00851030  RH  045%=      5-min Rain = 0
KPVS 192045Z 33015G22KT 08/M03 A3025 RMK A01 T00841032  RH  044%=      5-min Rain = 0
KPVS 192050Z 33014G23KT 09/M03 A3025 RMK A01 T00861031  RH  044%=      5-min Rain = 0
KPVS 192055Z 33014G21KT 09/M03 A3025 RMK A01 T00881032  RH  043%=      5-min Rain = 0
KPVS 192100Z 33014G19KT 09/M03 A3025 RMK A01 T00861031  RH  044%=      5-min Rain = 0
KPVS 192105Z 35016G21KT 09/M03 A3025 RMK A01 T00851034  RH  043%=      5-min Rain = 0
KPVS 192110Z 34015KT 09/M03 A3025 RMK A01 T00851031  RH  044%=      5-min Rain = 0
KPVS 192115Z 34014G21KT 09/M03 A3025 RMK A01 T00851032  RH  044%=      5-min Rain = 0
KPVS 192120Z 34014G19KT 09/M03 A3025 RMK A01 T00861032  RH  044%=      5-min Rain = 0
KPVS 192125Z 33014KT 09/M03 A3025 RMK A01 T00881032  RH  043%=      5-min Rain = 0
KPVS 192130Z 34012G19KT 09/M03 A3025 RMK A01 T00891033  RH  042%=      5-min Rain = 0
KPVS 192135Z 33015G20KT 09/M04 A3025 RMK A01 T00891037  RH  041%=      5-min Rain = 0
KPVS 192140Z 34011KT 09/M03 A3025 RMK A01 T00911034  RH  042%=      5-min Rain = 0
KPVS 192145Z 33010G19KT 09/M03 A3025 RMK A01 T00921033  RH  042%=      5-min Rain = 0
KPVS 192150Z 33011G19KT 09/M04 A3026 RMK A01 T00921035  RH  041%=      5-min Rain = 0
KPVS 192155Z 32012KT 09/M04 A3026 RMK A01 T00931038  RH  040%=      5-min Rain = 0
KPVS 192200Z 32014KT 09/M04 A3026 RMK A01 T00901039  RH  040%=      5-min Rain = 0
KPVS 192205Z 33014KT 09/M04 A3026 RMK A01 T00881037  RH  041%=      5-min Rain = 0
KPVS 192210Z 33011G16KT 09/M04 A3026 RMK A01 T00891035  RH  042%=      5-min Rain = 0
KPVS 192215Z 34011G16KT 09/M03 A3026 RMK A01 T00901034  RH  042%=      5-min Rain = 0
KPVS 192220Z 34011KT 09/M03 A3026 RMK A01 T00911033  RH  042%=      5-min Rain = 0
KPVS 192225Z 32011KT 09/M03 A3025 RMK A01 T00891033  RH  042%=      5-min Rain = 0
KPVS 192230Z 33010KT 09/M03 A3025 RMK A01 T00901033  RH  042%=      5-min Rain = 0
KPVS 192235Z 33010KT 09/M03 A3025 RMK A01 T00891032  RH  043%=      5-min Rain = 0
KPVS 192240Z 33009KT 09/M03 A3025 RMK A01 T00901031  RH  043%=      5-min Rain = 0
KPVS 192245Z 35007KT 09/M03 A3026 RMK A01 T00911031  RH  043%=      5-min Rain = 0
KPVS 192250Z 35008G15KT 09/M03 A3025 RMK A01 T00911031  RH  043%=      5-min Rain = 0
KPVS 192255Z 34010KT 09/M03 A3025 RMK A01 T00891031  RH  043%=      5-min Rain = 0
KPVS 192300Z 34009G14KT 09/M03 A3025 RMK A01 T00881030  RH  044%=      5-min Rain = 0
KPVS 192305Z 34010KT 09/M03 A3025 RMK A01 T00871030  RH  044%=      5-min Rain = 0
KPVS 192310Z 35007KT 09/M03 A3025 RMK A01 T00871028  RH  045%=      5-min Rain = 0
KPVS 192315Z 34006KT 09/M03 A3025 RMK A01 T00861028  RH  045%=      5-min Rain = 0
KPVS 192320Z 36007G13KT 09/M03 A3025 RMK A01 T00861029  RH  045%=      5-min Rain = 0
KPVS 192325Z 36010KT 08/M03 A3025 RMK A01 T00831030  RH  045%=      5-min Rain = 0
KPVS 192330Z 36010KT 08/M03 A3025 RMK A01 T00811030  RH  046%=      5-min Rain = 0
KPVS 192335Z 36009KT 08/M03 A3025 RMK A01 T00791029  RH  047%=      5-min Rain = 0
KPVS 192340Z 36008KT 08/M03 A3025 RMK A01 T00781029  RH  047%=      5-min Rain = 0
KPVS 192345Z 36007KT 08/M03 A3025 RMK A01 T00771029  RH  048%=      5-min Rain = 0
KPVS 192350Z 36006KT 08/M03 A3026 RMK A01 T00751029  RH  048%=      5-min Rain = 0
KPVS 192355Z 01006KT 07/M03 A3025 RMK A01 T00721029  RH  049%=      5-min Rain = 0
KPVS 200000Z 01007KT 07/M03 A3025 RMK A01 T00701030  RH  049%=      5-min Rain = 0
KPVS 200005Z 01006KT 07/M03 A3025 RMK A01 T00681031  RH  050%=      5-min Rain = 0
KPVS 200010Z 01006KT 07/M03 A3025 RMK A01 T00651032  RH  050%=      5-min Rain = 0
KPVS 200015Z 01006KT 06/M03 A3025 RMK A01 T00621033  RH  051%=      5-min Rain = 0
KPVS 200020Z 02006KT 06/M03 A3025 RMK A01 T00621033  RH  051%=      5-min Rain = 0
KPVS 200025Z 02007KT 06/M03 A3025 RMK A01 T00621034  RH  051%=      5-min Rain = 0
KPVS 200030Z 03006KT 06/M03 A3025 RMK A01 T00611034  RH  051%=      5-min Rain = 0
KPVS 200035Z 03006KT 06/M03 A3026 RMK A01 T00591034  RH  052%=      5-min Rain = 0
KPVS 200040Z 03005KT 06/M04 A3026 RMK A01 T00571035  RH  052%=      5-min Rain = 0
KPVS 200045Z 04005KT 06/M04 A3026 RMK A01 T00561035  RH  053%=      5-min Rain = 0
KPVS 200050Z 04004KT 05/M04 A3026 RMK A01 T00541036  RH  053%=      5-min Rain = 0
KPVS 200055Z 04004KT 05/M04 A3026 RMK A01 T00511036  RH  054%=      5-min Rain = 0
KPVS 200100Z 03005KT 05/M04 A3026 RMK A01 T00481036  RH  055%=      5-min Rain = 0
KPVS 200105Z 03005KT 05/M04 A3026 RMK A01 T00471037  RH  055%=      5-min Rain = 0
KPVS 200110Z 04005KT 05/M04 A3026 RMK A01 T00461038  RH  055%=      5-min Rain = 0
KPVS 200115Z 04006KT 04/M04 A3026 RMK A01 T00421038  RH  056%=      5-min Rain = 0
KPVS 200120Z 04005KT 04/M04 A3026 RMK A01 T00401039  RH  057%=      5-min Rain = 0
KPVS 200125Z 05006KT 04/M04 A3025 RMK A01 T00391040  RH  057%=      5-min Rain = 0
KPVS 200130Z 06004KT 04/M04 A3025 RMK A01 T00391040  RH  057%=      5-min Rain = 0
KPVS 200135Z 06004KT 04/M04 A3024 RMK A01 T00391040  RH  057%=      5-min Rain = 0
KPVS 200140Z 06005KT 04/M04 A3024 RMK A01 T00381041  RH  057%=      5-min Rain = 0
KPVS 200145Z 08004KT 04/M04 A3024 RMK A01 T00371041  RH  057%=      5-min Rain = 0
KPVS 200150Z 09004KT 04/M04 A3023 RMK A01 T00371041  RH  057%=      5-min Rain = 0
KPVS 200155Z 09004KT 03/M04 A3023 RMK A01 T00341042  RH  058%=      5-min Rain = 0
KPVS 200200Z 09004KT 03/M04 A3024 RMK A01 T00321042  RH  059%=      5-min Rain = 0
KPVS 200205Z 08004KT 03/M04 A3025 RMK A01 T00301043  RH  060%=      5-min Rain = 0
KPVS 200210Z 08004KT 03/M04 A3025 RMK A01 T00261044  RH  060%=      5-min Rain = 0
KPVS 200215Z 07004KT 02/M04 A3025 RMK A01 T00231044  RH  062%=      5-min Rain = 0
KPVS 200220Z 07004KT 02/M04 A3025 RMK A01 T00221044  RH  062%=      5-min Rain = 0
KPVS 200225Z 08003KT 02/M04 A3025 RMK A01 T00221044  RH  062%=      5-min Rain = 0
KPVS 200230Z 11002KT 02/M05 A3026 RMK A01 T00211045  RH  063%=      5-min Rain = 0
KPVS 200235Z 11002KT 02/M05 A3027 RMK A01 T00191045  RH  063%=      5-min Rain = 0
KPVS 200240Z 08002KT 02/M05 A3027 RMK A01 T00181046  RH  063%=      5-min Rain = 0
KPVS 200245Z 07001KT 02/M05 A3027 RMK A01 T00161046  RH  064%=      5-min Rain = 0
KPVS 200250Z 08001KT 02/M04 A3027 RMK A01 T00171044  RH  065%=      5-min Rain = 0
KPVS 200255Z 07003KT 02/M05 A3026 RMK A01 T00171045  RH  064%=      5-min Rain = 0
KPVS 200300Z 09003KT 01/M05 A3026 RMK A01 T00131048  RH  065%=      5-min Rain = 0
KPVS 200305Z 12003KT 01/M05 A3026 RMK A01 T00101047  RH  067%=      5-min Rain = 0
KPVS 200310Z 12001KT 01/M05 A3027 RMK A01 T00101046  RH  067%=      5-min Rain = 0
KPVS 200315Z 05001KT 01/M05 A3027 RMK A01 T00071047  RH  068%=      5-min Rain = 0
KPVS 200320Z 10002KT 01/M05 A3026 RMK A01 T00071046  RH  068%=      5-min Rain = 0
KPVS 200325Z 11004KT 01/M05 A3025 RMK A01 T00081046  RH  068%=      5-min Rain = 0
KPVS 200330Z 10004KT 01/M05 A3025 RMK A01 T00071047  RH  068%=      5-min Rain = 0
KPVS 200335Z 10004KT 00/M05 A3025 RMK A01 T00031048  RH  069%=      5-min Rain = 0
KPVS 200340Z 11004KT 00/M05 A3025 RMK A01 T00021048  RH  070%=      5-min Rain = 0
KPVS 200345Z 12004KT 00/M05 A3025 RMK A01 T00021048  RH  070%=      5-min Rain = 0
KPVS 200350Z 10003KT 00/M05 A3025 RMK A01 T00011049  RH  070%=      5-min Rain = 0
KPVS 200355Z 11004KT M00/M05 A3025 RMK A01 T10011048  RH  071%=      5-min Rain = 0
KPVS 200400Z 12003KT 00/05 A3025 RMK A01 T00-00-48  RH  071%=      5-min Rain = 0
KPVS 200405Z 11003KT M00/M05 A3026 RMK A01 T10011048  RH  071%=      5-min Rain = 0
KPVS 200410Z 14004KT M00/M05 A3026 RMK A01 T10031049  RH  072%=      5-min Rain = 0
KPVS 200415Z 13004KT M00/M05 A3026 RMK A01 T10011046  RH  073%=      5-min Rain = 0
KPVS 200420Z 14004KT 00/05 A3025 RMK A01 T00-00-46  RH  072%=      5-min Rain = 0
KPVS 200425Z 12003KT 00/M05 A3025 RMK A01 T00021045  RH  071%=      5-min Rain = 0
KPVS 200430Z 14003KT 00/M05 A3025 RMK A01 T00011047  RH  071%=      5-min Rain = 0
KPVS 200435Z 13005KT 00/M05 A3025 RMK A01 T00021046  RH  071%=      5-min Rain = 0
KPVS 200440Z 13004KT 00/M05 A3025 RMK A01 T00021046  RH  071%=      5-min Rain = 0
KPVS 200445Z 13004KT 00/M05 A3025 RMK A01 T00011046  RH  071%=      5-min Rain = 0
KPVS 200450Z 14004KT 00/M05 A3026 RMK A01 T00011046  RH  072%=      5-min Rain = 0
KPVS 200455Z 14004KT 00/M05 A3026 RMK A01 T00011045  RH  072%=      5-min Rain = 0
KPVS 200500Z 15004KT 00/05 A3026 RMK A01 T00000-46  RH  072%=      5-min Rain = 0
KPVS 200505Z 15005KT M00/M05 A3026 RMK A01 T10011045  RH  073%=      5-min Rain = 0
KPVS 200510Z 15004KT M00/M05 A3027 RMK A01 T10021045  RH  073%=      5-min Rain = 0
KPVS 200515Z 15004KT M00/M05 A3027 RMK A01 T10031046  RH  074%=      5-min Rain = 0
KPVS 200520Z 15004KT M00/M05 A3026 RMK A01 T10041047  RH  074%=      5-min Rain = 0
KPVS 200525Z 14005KT M00/M05 A3026 RMK A01 T10041046  RH  074%=      5-min Rain = 0
KPVS 200530Z 14005KT M00/M05 A3026 RMK A01 T10031045  RH  074%=      5-min Rain = 0
KPVS 200535Z 14005KT M00/M05 A3026 RMK A01 T10031045  RH  074%=      5-min Rain = 0
KPVS 200540Z 13004KT M00/M05 A3026 RMK A01 T10031045  RH  074%=      5-min Rain = 0
KPVS 200545Z 13003KT M01/M05 A3027 RMK A01 T10101050  RH  075%=      5-min Rain = 0
KPVS 200550Z 15002KT M01/M05 A3027 RMK A01 T10121050  RH  077%=      5-min Rain = 0
KPVS 200555Z 14004KT M01/M05 A3027 RMK A01 T10101046  RH  078%=      5-min Rain = 0

Page generated in 0.0095 seconds.